sensor_id;sensor_type;location;lat;lon;timestamp;P1;durP1;ratioP1;P2;durP2;ratioP2
78618;SDS011;67941;52.506;5.470;2023-04-06T00:01:17;3.53;;;1.23;;
78618;SDS011;67941;52.506;5.470;2023-04-06T00:04:07;0.60;;;0.30;;
78618;SDS011;67941;52.506;5.470;2023-04-06T00:06:54;0.73;;;0.50;;
78618;SDS011;67941;52.506;5.470;2023-04-06T00:09:23;1.40;;;0.50;;
78618;SDS011;67941;52.506;5.470;2023-04-06T00:11:52;1.08;;;0.65;;
78618;SDS011;67941;52.506;5.470;2023-04-06T00:14:21;1.17;;;0.50;;
78618;SDS011;67941;52.506;5.470;2023-04-06T00:17:08;1.25;;;0.52;;
78618;SDS011;67941;52.506;5.470;2023-04-06T00:19:40;1.10;;;0.50;;
78618;SDS011;67941;52.506;5.470;2023-04-06T00:22:08;0.82;;;0.63;;
78618;SDS011;67941;52.506;5.470;2023-04-06T00:24:56;0.98;;;0.82;;
78618;SDS011;67941;52.506;5.470;2023-04-06T00:27:24;0.63;;;0.52;;
78618;SDS011;67941;52.506;5.470;2023-04-06T00:30:12;0.80;;;0.40;;
78618;SDS011;67941;52.506;5.470;2023-04-06T00:32:41;0.75;;;0.50;;
78618;SDS011;67941;52.506;5.470;2023-04-06T00:35:12;0.70;;;0.50;;
78618;SDS011;67941;52.506;5.470;2023-04-06T00:37:41;0.65;;;0.30;;
78618;SDS011;67941;52.506;5.470;2023-04-06T00:40:28;0.55;;;0.40;;
78618;SDS011;67941;52.506;5.470;2023-04-06T00:42:58;1.75;;;0.85;;
78618;SDS011;67941;52.506;5.470;2023-04-06T00:45:45;0.55;;;0.32;;
78618;SDS011;67941;52.506;5.470;2023-04-06T00:48:14;0.65;;;0.43;;
78618;SDS011;67941;52.506;5.470;2023-04-06T00:51:04;0.50;;;0.30;;
78618;SDS011;67941;52.506;5.470;2023-04-06T00:53:33;0.55;;;0.40;;
78618;SDS011;67941;52.506;5.470;2023-04-06T00:56:02;0.35;;;0.30;;
78618;SDS011;67941;52.506;5.470;2023-04-06T00:59:01;1.10;;;0.95;;
78618;SDS011;67941;52.506;5.470;2023-04-06T01:01:50;0.45;;;0.25;;
78618;SDS011;67941;52.506;5.470;2023-04-06T01:04:29;4.40;;;1.42;;
78618;SDS011;67941;52.506;5.470;2023-04-06T01:07:21;2.63;;;0.88;;
78618;SDS011;67941;52.506;5.470;2023-04-06T01:10:24;1.02;;;0.28;;
78618;SDS011;67941;52.506;5.470;2023-04-06T01:13:14;1.15;;;0.52;;
78618;SDS011;67941;52.506;5.470;2023-04-06T01:15:51;0.82;;;0.40;;
78618;SDS011;67941;52.506;5.470;2023-04-06T01:18:46;0.30;;;0.20;;
78618;SDS011;67941;52.506;5.470;2023-04-06T01:24:10;0.52;;;0.30;;
78618;SDS011;67941;52.506;5.470;2023-04-06T01:27:08;0.20;;;0.20;;
78618;SDS011;67941;52.506;5.470;2023-04-06T01:29:57;0.55;;;0.55;;
78618;SDS011;67941;52.506;5.470;2023-04-06T01:32:48;0.50;;;0.43;;
78618;SDS011;67941;52.506;5.470;2023-04-06T01:35:47;0.45;;;0.30;;
78618;SDS011;67941;52.506;5.470;2023-04-06T01:38:37;0.30;;;0.30;;
78618;SDS011;67941;52.506;5.470;2023-04-06T01:41:09;0.63;;;0.20;;
78618;SDS011;67941;52.506;5.470;2023-04-06T01:44:16;0.60;;;0.40;;
78618;SDS011;67941;52.506;5.470;2023-04-06T01:47:10;0.55;;;0.30;;
78618;SDS011;67941;52.506;5.470;2023-04-06T01:49:39;1.23;;;0.55;;
78618;SDS011;67941;52.506;5.470;2023-04-06T01:52:08;0.52;;;0.52;;
78618;SDS011;67941;52.506;5.470;2023-04-06T01:54:41;1.23;;;0.40;;
78618;SDS011;67941;52.506;5.470;2023-04-06T01:57:50;0.30;;;0.20;;
78618;SDS011;67941;52.506;5.470;2023-04-06T02:00:30;0.68;;;0.40;;
78618;SDS011;67941;52.506;5.470;2023-04-06T02:03:19;0.40;;;0.30;;
78618;SDS011;67941;52.506;5.470;2023-04-06T02:06:12;1.13;;;1.13;;
78618;SDS011;67941;52.506;5.470;2023-04-06T02:09:00;0.40;;;0.20;;
78618;SDS011;67941;52.506;5.470;2023-04-06T02:11:47;1.45;;;0.55;;
78618;SDS011;67941;52.506;5.470;2023-04-06T02:14:19;0.38;;;0.20;;
78618;SDS011;67941;52.506;5.470;2023-04-06T02:17:10;0.82;;;0.40;;
78618;SDS011;67941;52.506;5.470;2023-04-06T02:19:57;1.10;;;0.63;;
78618;SDS011;67941;52.506;5.470;2023-04-06T02:22:45;0.50;;;0.30;;
78618;SDS011;67941;52.506;5.470;2023-04-06T02:25:14;1.20;;;0.80;;
78618;SDS011;67941;52.506;5.470;2023-04-06T02:27:42;0.38;;;0.30;;
78618;SDS011;67941;52.506;5.470;2023-04-06T02:30:14;0.52;;;0.38;;
78618;SDS011;67941;52.506;5.470;2023-04-06T02:32:43;0.55;;;0.35;;
78618;SDS011;67941;52.506;5.470;2023-04-06T02:35:12;0.80;;;0.52;;
78618;SDS011;67941;52.506;5.470;2023-04-06T02:38:00;0.22;;;0.20;;
78618;SDS011;67941;52.506;5.470;2023-04-06T02:40:47;1.60;;;0.65;;
78618;SDS011;67941;52.506;5.470;2023-04-06T02:43:38;1.25;;;0.52;;
78618;SDS011;67941;52.506;5.470;2023-04-06T02:46:21;1.23;;;0.40;;
78618;SDS011;67941;52.506;5.470;2023-04-06T02:49:08;0.98;;;0.55;;
78618;SDS011;67941;52.506;5.470;2023-04-06T02:51:37;0.82;;;0.30;;
78618;SDS011;67941;52.506;5.470;2023-04-06T02:54:20;0.40;;;0.30;;
78618;SDS011;67941;52.506;5.470;2023-04-06T02:57:07;1.27;;;0.50;;
78618;SDS011;67941;52.506;5.470;2023-04-06T02:59:41;0.65;;;0.32;;
78618;SDS011;67941;52.506;5.470;2023-04-06T03:02:37;0.52;;;0.25;;
78618;SDS011;67941;52.506;5.470;2023-04-06T03:05:09;0.75;;;0.43;;
78618;SDS011;67941;52.506;5.470;2023-04-06T03:08:00;0.50;;;0.30;;
78618;SDS011;67941;52.506;5.470;2023-04-06T03:10:57;0.65;;;0.40;;
78618;SDS011;67941;52.506;5.470;2023-04-06T03:13:52;0.50;;;0.30;;
78618;SDS011;67941;52.506;5.470;2023-04-06T03:16:21;0.57;;;0.40;;
78618;SDS011;67941;52.506;5.470;2023-04-06T03:19:11;0.57;;;0.32;;
78618;SDS011;67941;52.506;5.470;2023-04-06T03:21:59;0.63;;;0.35;;
78618;SDS011;67941;52.506;5.470;2023-04-06T03:24:46;0.95;;;0.43;;
78618;SDS011;67941;52.506;5.470;2023-04-06T03:27:33;0.98;;;0.45;;
78618;SDS011;67941;52.506;5.470;2023-04-06T03:30:04;1.90;;;0.63;;
78618;SDS011;67941;52.506;5.470;2023-04-06T03:32:53;0.73;;;0.50;;
78618;SDS011;67941;52.506;5.470;2023-04-06T03:35:27;1.10;;;0.68;;
78618;SDS011;67941;52.506;5.470;2023-04-06T03:38:14;0.45;;;0.30;;
78618;SDS011;67941;52.506;5.470;2023-04-06T03:41:02;1.13;;;0.47;;
78618;SDS011;67941;52.506;5.470;2023-04-06T03:43:49;2.33;;;0.82;;
78618;SDS011;67941;52.506;5.470;2023-04-06T03:46:18;2.40;;;0.75;;
78618;SDS011;67941;52.506;5.470;2023-04-06T03:48:50;1.88;;;0.82;;
78618;SDS011;67941;52.506;5.470;2023-04-06T03:51:24;1.55;;;0.65;;
78618;SDS011;67941;52.506;5.470;2023-04-06T03:54:11;2.38;;;0.75;;
78618;SDS011;67941;52.506;5.470;2023-04-06T03:56:41;1.95;;;0.65;;
78618;SDS011;67941;52.506;5.470;2023-04-06T03:59:28;1.42;;;0.65;;
78618;SDS011;67941;52.506;5.470;2023-04-06T04:01:57;2.13;;;0.75;;
78618;SDS011;67941;52.506;5.470;2023-04-06T04:04:26;2.38;;;1.02;;
78618;SDS011;67941;52.506;5.470;2023-04-06T04:07:17;1.65;;;1.13;;
78618;SDS011;67941;52.506;5.470;2023-04-06T04:10:05;1.52;;;0.60;;
78618;SDS011;67941;52.506;5.470;2023-04-06T04:12:52;0.95;;;0.55;;
78618;SDS011;67941;52.506;5.470;2023-04-06T04:15:22;2.97;;;0.90;;
78618;SDS011;67941;52.506;5.470;2023-04-06T04:18:09;0.85;;;0.43;;
78618;SDS011;67941;52.506;5.470;2023-04-06T04:20:38;2.25;;;0.80;;
78618;SDS011;67941;52.506;5.470;2023-04-06T04:23:30;2.25;;;0.63;;
78618;SDS011;67941;52.506;5.470;2023-04-06T04:25:59;1.30;;;0.47;;
78618;SDS011;67941;52.506;5.470;2023-04-06T04:28:46;2.65;;;1.05;;
78618;SDS011;67941;52.506;5.470;2023-04-06T04:31:33;1.95;;;0.70;;
78618;SDS011;67941;52.506;5.470;2023-04-06T04:34:24;0.82;;;0.45;;
78618;SDS011;67941;52.506;5.470;2023-04-06T04:37:12;1.77;;;0.85;;
78618;SDS011;67941;52.506;5.470;2023-04-06T04:39:53;2.33;;;0.65;;
78618;SDS011;67941;52.506;5.470;2023-04-06T04:42:40;2.33;;;0.88;;
78618;SDS011;67941;52.506;5.470;2023-04-06T04:45:33;2.53;;;1.00;;
78618;SDS011;67941;52.506;5.470;2023-04-06T04:48:12;2.22;;;0.90;;
78618;SDS011;67941;52.506;5.470;2023-04-06T04:51:09;3.78;;;1.30;;
78618;SDS011;67941;52.506;5.470;2023-04-06T04:54:25;3.13;;;1.05;;
78618;SDS011;67941;52.506;5.470;2023-04-06T04:56:57;2.22;;;0.90;;
78618;SDS011;67941;52.506;5.470;2023-04-06T05:00:11;0.75;;;0.40;;
78618;SDS011;67941;52.506;5.470;2023-04-06T05:03:01;1.75;;;0.77;;
78618;SDS011;67941;52.506;5.470;2023-04-06T05:05:54;1.65;;;0.70;;
78618;SDS011;67941;52.506;5.470;2023-04-06T05:08:44;1.30;;;0.55;;
78618;SDS011;67941;52.506;5.470;2023-04-06T05:11:33;1.48;;;0.68;;
78618;SDS011;67941;52.506;5.470;2023-04-06T05:14:23;1.38;;;0.75;;
78618;SDS011;67941;52.506;5.470;2023-04-06T05:17:12;1.80;;;0.90;;
78618;SDS011;67941;52.506;5.470;2023-04-06T05:20:00;0.93;;;0.60;;
78618;SDS011;67941;52.506;5.470;2023-04-06T05:22:53;1.90;;;0.70;;
78618;SDS011;67941;52.506;5.470;2023-04-06T05:25:22;3.72;;;1.20;;
78618;SDS011;67941;52.506;5.470;2023-04-06T05:28:12;1.75;;;0.68;;
78618;SDS011;67941;52.506;5.470;2023-04-06T05:30:45;3.33;;;1.13;;
78618;SDS011;67941;52.506;5.470;2023-04-06T05:36:25;2.05;;;0.50;;
78618;SDS011;67941;52.506;5.470;2023-04-06T05:38:54;1.58;;;1.27;;
78618;SDS011;67941;52.506;5.470;2023-04-06T05:41:33;1.80;;;0.57;;
78618;SDS011;67941;52.506;5.470;2023-04-06T05:44:02;1.48;;;0.47;;
78618;SDS011;67941;52.506;5.470;2023-04-06T05:46:35;2.30;;;1.00;;
78618;SDS011;67941;52.506;5.470;2023-04-06T05:49:05;0.85;;;0.52;;
78618;SDS011;67941;52.506;5.470;2023-04-06T05:51:35;1.42;;;0.55;;
78618;SDS011;67941;52.506;5.470;2023-04-06T05:54:04;1.05;;;0.65;;
78618;SDS011;67941;52.506;5.470;2023-04-06T05:56:33;1.10;;;0.85;;
78618;SDS011;67941;52.506;5.470;2023-04-06T05:59:02;1.73;;;0.57;;
78618;SDS011;67941;52.506;5.470;2023-04-06T06:01:52;1.15;;;0.50;;
78618;SDS011;67941;52.506;5.470;2023-04-06T06:04:40;1.30;;;0.50;;
78618;SDS011;67941;52.506;5.470;2023-04-06T06:07:27;1.63;;;0.70;;
78618;SDS011;67941;52.506;5.470;2023-04-06T06:10:18;2.30;;;1.08;;
78618;SDS011;67941;52.506;5.470;2023-04-06T06:13:07;1.90;;;0.60;;
78618;SDS011;67941;52.506;5.470;2023-04-06T06:15:54;2.70;;;1.00;;
78618;SDS011;67941;52.506;5.470;2023-04-06T06:18:46;1.10;;;0.32;;
78618;SDS011;67941;52.506;5.470;2023-04-06T06:21:15;1.45;;;0.52;;
78618;SDS011;67941;52.506;5.470;2023-04-06T06:23:44;4.05;;;1.25;;
78618;SDS011;67941;52.506;5.470;2023-04-06T06:26:17;1.58;;;0.50;;
78618;SDS011;67941;52.506;5.470;2023-04-06T06:28:48;2.22;;;0.60;;
78618;SDS011;67941;52.506;5.470;2023-04-06T06:31:36;1.70;;;0.55;;
78618;SDS011;67941;52.506;5.470;2023-04-06T06:34:26;2.83;;;1.02;;
78618;SDS011;67941;52.506;5.470;2023-04-06T06:36:57;2.75;;;0.80;;
78618;SDS011;67941;52.506;5.470;2023-04-06T06:39:46;1.90;;;0.82;;
78618;SDS011;67941;52.506;5.470;2023-04-06T06:42:34;1.05;;;0.52;;
78618;SDS011;67941;52.506;5.470;2023-04-06T06:45:14;2.10;;;0.77;;
78618;SDS011;67941;52.506;5.470;2023-04-06T06:47:45;2.35;;;0.82;;
78618;SDS011;67941;52.506;5.470;2023-04-06T06:50:16;3.63;;;1.42;;
78618;SDS011;67941;52.506;5.470;2023-04-06T06:52:45;3.20;;;1.17;;
78618;SDS011;67941;52.506;5.470;2023-04-06T06:55:14;3.45;;;1.17;;
78618;SDS011;67941;52.506;5.470;2023-04-06T06:57:44;4.97;;;1.63;;
78618;SDS011;67941;52.506;5.470;2023-04-06T07:00:14;3.05;;;1.08;;
78618;SDS011;67941;52.506;5.470;2023-04-06T07:02:50;4.68;;;1.73;;
78618;SDS011;67941;52.506;5.470;2023-04-06T07:05:22;2.30;;;0.70;;
78618;SDS011;67941;52.506;5.470;2023-04-06T07:07:51;2.97;;;0.90;;
78618;SDS011;67941;52.506;5.470;2023-04-06T07:10:20;3.05;;;0.93;;
78618;SDS011;67941;52.506;5.470;2023-04-06T07:12:49;4.75;;;1.42;;
78618;SDS011;67941;52.506;5.470;2023-04-06T07:15:18;2.47;;;1.02;;
78618;SDS011;67941;52.506;5.470;2023-04-06T07:17:48;4.38;;;1.02;;
78618;SDS011;67941;52.506;5.470;2023-04-06T07:20:17;3.25;;;1.05;;
78618;SDS011;67941;52.506;5.470;2023-04-06T07:22:49;5.38;;;1.92;;
78618;SDS011;67941;52.506;5.470;2023-04-06T07:25:18;5.03;;;1.27;;
78618;SDS011;67941;52.506;5.470;2023-04-06T07:27:46;5.07;;;1.70;;
78618;SDS011;67941;52.506;5.470;2023-04-06T07:30:18;5.05;;;1.90;;
78618;SDS011;67941;52.506;5.470;2023-04-06T07:32:47;3.33;;;1.30;;
78618;SDS011;67941;52.506;5.470;2023-04-06T07:35:16;3.90;;;1.23;;
78618;SDS011;67941;52.506;5.470;2023-04-06T07:37:45;4.30;;;1.63;;
78618;SDS011;67941;52.506;5.470;2023-04-06T07:40:17;5.38;;;1.90;;
78618;SDS011;67941;52.506;5.470;2023-04-06T07:42:47;5.75;;;2.10;;
78618;SDS011;67941;52.506;5.470;2023-04-06T07:45:16;7.97;;;2.20;;
78618;SDS011;67941;52.506;5.470;2023-04-06T07:47:45;6.55;;;2.60;;
78618;SDS011;67941;52.506;5.470;2023-04-06T07:50:15;8.23;;;2.85;;
78618;SDS011;67941;52.506;5.470;2023-04-06T07:52:44;4.47;;;1.70;;
78618;SDS011;67941;52.506;5.470;2023-04-06T07:55:16;5.28;;;1.85;;
78618;SDS011;67941;52.506;5.470;2023-04-06T07:57:45;6.82;;;2.38;;
78618;SDS011;67941;52.506;5.470;2023-04-06T08:00:14;4.93;;;1.67;;
78618;SDS011;67941;52.506;5.470;2023-04-06T08:02:46;5.07;;;1.85;;
78618;SDS011;67941;52.506;5.470;2023-04-06T08:05:15;6.82;;;2.38;;
78618;SDS011;67941;52.506;5.470;2023-04-06T08:07:44;6.47;;;2.53;;
78618;SDS011;67941;52.506;5.470;2023-04-06T08:10:15;4.88;;;1.85;;
78618;SDS011;67941;52.506;5.470;2023-04-06T08:12:44;7.03;;;2.58;;
78618;SDS011;67941;52.506;5.470;2023-04-06T08:15:13;6.00;;;2.38;;
78618;SDS011;67941;52.506;5.470;2023-04-06T08:17:43;6.25;;;2.35;;
78618;SDS011;67941;52.506;5.470;2023-04-06T08:20:12;6.07;;;2.05;;
78618;SDS011;67941;52.506;5.470;2023-04-06T08:22:41;6.53;;;1.95;;
78618;SDS011;67941;52.506;5.470;2023-04-06T08:25:09;6.60;;;2.20;;
78618;SDS011;67941;52.506;5.470;2023-04-06T08:27:41;6.05;;;2.05;;
78618;SDS011;67941;52.506;5.470;2023-04-06T08:30:10;6.20;;;2.20;;
78618;SDS011;67941;52.506;5.470;2023-04-06T08:32:40;6.15;;;2.40;;
78618;SDS011;67941;52.506;5.470;2023-04-06T08:35:09;5.95;;;2.10;;
78618;SDS011;67941;52.506;5.470;2023-04-06T08:37:38;5.68;;;1.92;;
78618;SDS011;67941;52.506;5.470;2023-04-06T08:40:07;7.85;;;2.53;;
78618;SDS011;67941;52.506;5.470;2023-04-06T08:42:39;7.70;;;2.80;;
78618;SDS011;67941;52.506;5.470;2023-04-06T08:45:12;6.30;;;2.35;;
78618;SDS011;67941;52.506;5.470;2023-04-06T08:47:46;7.53;;;3.05;;
78618;SDS011;67941;52.506;5.470;2023-04-06T08:50:16;9.75;;;2.80;;
78618;SDS011;67941;52.506;5.470;2023-04-06T08:52:46;8.02;;;3.25;;
78618;SDS011;67941;52.506;5.470;2023-04-06T08:55:16;8.65;;;2.95;;
78618;SDS011;67941;52.506;5.470;2023-04-06T08:57:48;7.95;;;3.00;;
78618;SDS011;67941;52.506;5.470;2023-04-06T09:00:19;7.20;;;2.97;;
78618;SDS011;67941;52.506;5.470;2023-04-06T09:02:49;8.07;;;3.08;;
78618;SDS011;67941;52.506;5.470;2023-04-06T09:05:20;7.13;;;2.80;;
78618;SDS011;67941;52.506;5.470;2023-04-06T09:07:49;8.40;;;3.08;;
78618;SDS011;67941;52.506;5.470;2023-04-06T09:10:18;7.80;;;3.00;;
78618;SDS011;67941;52.506;5.470;2023-04-06T09:12:51;8.35;;;3.70;;
78618;SDS011;67941;52.506;5.470;2023-04-06T09:15:30;7.57;;;3.75;;
78618;SDS011;67941;52.506;5.470;2023-04-06T09:17:59;7.40;;;2.90;;
78618;SDS011;67941;52.506;5.470;2023-04-06T09:20:27;8.00;;;3.25;;
78618;SDS011;67941;52.506;5.470;2023-04-06T09:22:56;11.05;;;3.97;;
78618;SDS011;67941;52.506;5.470;2023-04-06T09:25:25;8.65;;;3.75;;
78618;SDS011;67941;52.506;5.470;2023-04-06T09:28:01;8.20;;;3.13;;
78618;SDS011;67941;52.506;5.470;2023-04-06T09:30:32;9.18;;;3.50;;
78618;SDS011;67941;52.506;5.470;2023-04-06T09:33:01;9.10;;;3.17;;
78618;SDS011;67941;52.506;5.470;2023-04-06T09:35:30;11.07;;;3.58;;
78618;SDS011;67941;52.506;5.470;2023-04-06T09:37:59;9.10;;;3.75;;
78618;SDS011;67941;52.506;5.470;2023-04-06T09:40:46;8.95;;;3.53;;
78618;SDS011;67941;52.506;5.470;2023-04-06T09:43:25;8.75;;;4.28;;
78618;SDS011;67941;52.506;5.470;2023-04-06T09:45:55;8.80;;;3.35;;
78618;SDS011;67941;52.506;5.470;2023-04-06T09:48:24;10.23;;;4.72;;
78618;SDS011;67941;52.506;5.470;2023-04-06T09:50:56;11.13;;;4.93;;
78618;SDS011;67941;52.506;5.470;2023-04-06T09:53:29;9.48;;;3.90;;
78618;SDS011;67941;52.506;5.470;2023-04-06T09:56:01;10.52;;;4.75;;
78618;SDS011;67941;52.506;5.470;2023-04-06T09:58:36;8.98;;;3.72;;
78618;SDS011;67941;52.506;5.470;2023-04-06T10:01:10;8.25;;;4.35;;
78618;SDS011;67941;52.506;5.470;2023-04-06T10:03:45;10.70;;;4.88;;
78618;SDS011;67941;52.506;5.470;2023-04-06T10:06:20;9.15;;;4.00;;
78618;SDS011;67941;52.506;5.470;2023-04-06T10:08:51;9.18;;;3.75;;
78618;SDS011;67941;52.506;5.470;2023-04-06T10:11:22;10.60;;;4.35;;
78618;SDS011;67941;52.506;5.470;2023-04-06T10:13:53;10.90;;;4.80;;
78618;SDS011;67941;52.506;5.470;2023-04-06T10:16:24;10.75;;;4.03;;
78618;SDS011;67941;52.506;5.470;2023-04-06T10:18:55;9.32;;;4.50;;
78618;SDS011;67941;52.506;5.470;2023-04-06T10:21:28;8.32;;;3.78;;
78618;SDS011;67941;52.506;5.470;2023-04-06T10:23:59;9.68;;;3.88;;
78618;SDS011;67941;52.506;5.470;2023-04-06T10:26:29;9.07;;;4.10;;
78618;SDS011;67941;52.506;5.470;2023-04-06T10:29:04;8.77;;;3.58;;
78618;SDS011;67941;52.506;5.470;2023-04-06T10:31:32;11.13;;;4.57;;
78618;SDS011;67941;52.506;5.470;2023-04-06T10:34:07;11.20;;;4.78;;
78618;SDS011;67941;52.506;5.470;2023-04-06T10:36:36;10.10;;;4.88;;
78618;SDS011;67941;52.506;5.470;2023-04-06T10:39:05;8.13;;;3.60;;
78618;SDS011;67941;52.506;5.470;2023-04-06T10:41:35;12.23;;;4.47;;
78618;SDS011;67941;52.506;5.470;2023-04-06T10:44:07;10.45;;;4.03;;
78618;SDS011;67941;52.506;5.470;2023-04-06T10:46:36;9.60;;;4.53;;
78618;SDS011;67941;52.506;5.470;2023-04-06T10:49:11;10.70;;;4.32;;
78618;SDS011;67941;52.506;5.470;2023-04-06T10:51:40;11.40;;;5.43;;
78618;SDS011;67941;52.506;5.470;2023-04-06T10:54:09;10.88;;;5.20;;
78618;SDS011;67941;52.506;5.470;2023-04-06T10:56:39;10.45;;;4.15;;
78618;SDS011;67941;52.506;5.470;2023-04-06T10:59:11;9.55;;;4.43;;
78618;SDS011;67941;52.506;5.470;2023-04-06T11:01:40;8.60;;;4.07;;
78618;SDS011;67941;52.506;5.470;2023-04-06T11:04:15;10.15;;;3.85;;
78618;SDS011;67941;52.506;5.470;2023-04-06T11:06:46;12.43;;;4.28;;
78618;SDS011;67941;52.506;5.470;2023-04-06T11:09:25;11.85;;;4.65;;
78618;SDS011;67941;52.506;5.470;2023-04-06T11:14:26;8.43;;;3.45;;
78618;SDS011;67941;52.506;5.470;2023-04-06T11:16:55;8.52;;;3.45;;
78618;SDS011;67941;52.506;5.470;2023-04-06T11:19:24;7.95;;;2.92;;
78618;SDS011;67941;52.506;5.470;2023-04-06T11:21:53;7.35;;;3.20;;
78618;SDS011;67941;52.506;5.470;2023-04-06T11:24:22;6.65;;;3.08;;
78618;SDS011;67941;52.506;5.470;2023-04-06T11:26:53;6.47;;;2.97;;
78618;SDS011;67941;52.506;5.470;2023-04-06T11:29:26;6.57;;;2.53;;
78618;SDS011;67941;52.506;5.470;2023-04-06T11:31:58;6.20;;;2.35;;
78618;SDS011;67941;52.506;5.470;2023-04-06T11:34:28;8.48;;;2.25;;
78618;SDS011;67941;52.506;5.470;2023-04-06T11:36:58;4.90;;;2.15;;
78618;SDS011;67941;52.506;5.470;2023-04-06T11:39:31;4.50;;;1.80;;
78618;SDS011;67941;52.506;5.470;2023-04-06T11:42:05;4.60;;;2.00;;
78618;SDS011;67941;52.506;5.470;2023-04-06T11:44:37;4.68;;;2.08;;
78618;SDS011;67941;52.506;5.470;2023-04-06T11:47:09;3.70;;;1.50;;
78618;SDS011;67941;52.506;5.470;2023-04-06T11:49:39;5.28;;;2.10;;
78618;SDS011;67941;52.506;5.470;2023-04-06T11:52:16;4.47;;;1.42;;
78618;SDS011;67941;52.506;5.470;2023-04-06T11:54:46;4.53;;;1.50;;
78618;SDS011;67941;52.506;5.470;2023-04-06T11:57:16;3.85;;;1.50;;
78618;SDS011;67941;52.506;5.470;2023-04-06T11:59:49;3.30;;;1.30;;
78618;SDS011;67941;52.506;5.470;2023-04-06T12:02:18;3.58;;;1.30;;
78618;SDS011;67941;52.506;5.470;2023-04-06T12:04:47;2.55;;;0.90;;
78618;SDS011;67941;52.506;5.470;2023-04-06T12:07:16;2.47;;;0.82;;
78618;SDS011;67941;52.506;5.470;2023-04-06T12:09:45;1.85;;;0.60;;
78618;SDS011;67941;52.506;5.470;2023-04-06T12:12:14;2.08;;;0.85;;
78618;SDS011;67941;52.506;5.470;2023-04-06T12:14:43;2.35;;;1.00;;
78618;SDS011;67941;52.506;5.470;2023-04-06T12:17:14;3.53;;;1.10;;
78618;SDS011;67941;52.506;5.470;2023-04-06T12:19:43;2.97;;;1.20;;
78618;SDS011;67941;52.506;5.470;2023-04-06T12:22:12;1.98;;;0.80;;
78618;SDS011;67941;52.506;5.470;2023-04-06T12:24:42;3.45;;;1.27;;
78618;SDS011;67941;52.506;5.470;2023-04-06T12:27:11;2.97;;;1.23;;
78618;SDS011;67941;52.506;5.470;2023-04-06T12:29:39;2.45;;;0.80;;
78618;SDS011;67941;52.506;5.470;2023-04-06T12:32:08;3.72;;;1.50;;
78618;SDS011;67941;52.506;5.470;2023-04-06T12:34:40;2.47;;;1.00;;
78618;SDS011;67941;52.506;5.470;2023-04-06T12:37:09;3.15;;;1.27;;
78618;SDS011;67941;52.506;5.470;2023-04-06T12:39:38;3.38;;;1.15;;
78618;SDS011;67941;52.506;5.470;2023-04-06T12:42:07;2.78;;;0.93;;
78618;SDS011;67941;52.506;5.470;2023-04-06T12:44:36;3.97;;;1.20;;
78618;SDS011;67941;52.506;5.470;2023-04-06T12:47:04;5.32;;;1.70;;
78618;SDS011;67941;52.506;5.470;2023-04-06T12:49:33;3.00;;;1.20;;
78618;SDS011;67941;52.506;5.470;2023-04-06T12:52:05;3.75;;;1.25;;
78618;SDS011;67941;52.506;5.470;2023-04-06T12:54:34;3.17;;;1.33;;
78618;SDS011;67941;52.506;5.470;2023-04-06T12:57:03;3.85;;;1.20;;
78618;SDS011;67941;52.506;5.470;2023-04-06T12:59:32;3.65;;;1.20;;
78618;SDS011;67941;52.506;5.470;2023-04-06T13:02:03;3.95;;;1.58;;
78618;SDS011;67941;52.506;5.470;2023-04-06T13:04:32;3.80;;;1.55;;
78618;SDS011;67941;52.506;5.470;2023-04-06T13:07:01;3.88;;;1.50;;
78618;SDS011;67941;52.506;5.470;2023-04-06T13:09:32;5.22;;;1.83;;
78618;SDS011;67941;52.506;5.470;2023-04-06T13:12:01;3.65;;;1.20;;
78618;SDS011;67941;52.506;5.470;2023-04-06T13:14:30;4.35;;;1.45;;
78618;SDS011;67941;52.506;5.470;2023-04-06T13:16:59;3.33;;;1.55;;
78618;SDS011;67941;52.506;5.470;2023-04-06T13:19:28;3.58;;;1.30;;
78618;SDS011;67941;52.506;5.470;2023-04-06T13:21:57;5.25;;;1.63;;
78618;SDS011;67941;52.506;5.470;2023-04-06T13:24:26;4.50;;;1.50;;
78618;SDS011;67941;52.506;5.470;2023-04-06T13:26:57;4.78;;;1.40;;
78618;SDS011;67941;52.506;5.470;2023-04-06T13:29:26;4.13;;;1.88;;
78618;SDS011;67941;52.506;5.470;2023-04-06T13:31:55;4.68;;;1.60;;
78618;SDS011;67941;52.506;5.470;2023-04-06T13:34:24;3.03;;;1.20;;
78618;SDS011;67941;52.506;5.470;2023-04-06T13:36:53;4.97;;;1.60;;
78618;SDS011;67941;52.506;5.470;2023-04-06T13:39:22;4.10;;;1.13;;
78618;SDS011;67941;52.506;5.470;2023-04-06T13:41:53;3.38;;;1.25;;
78618;SDS011;67941;52.506;5.470;2023-04-06T13:44:24;3.00;;;1.23;;
78618;SDS011;67941;52.506;5.470;2023-04-06T13:46:53;4.10;;;1.40;;
78618;SDS011;67941;52.506;5.470;2023-04-06T13:49:22;3.53;;;1.38;;
78618;SDS011;67941;52.506;5.470;2023-04-06T13:51:51;4.03;;;1.15;;
78618;SDS011;67941;52.506;5.470;2023-04-06T13:54:20;2.53;;;0.88;;
78618;SDS011;67941;52.506;5.470;2023-04-06T13:56:49;2.63;;;1.10;;
78618;SDS011;67941;52.506;5.470;2023-04-06T13:59:20;2.88;;;1.35;;
78618;SDS011;67941;52.506;5.470;2023-04-06T14:01:51;3.83;;;1.55;;
78618;SDS011;67941;52.506;5.470;2023-04-06T14:04:20;3.15;;;1.30;;
78618;SDS011;67941;52.506;5.470;2023-04-06T14:06:49;2.40;;;1.17;;
78618;SDS011;67941;52.506;5.470;2023-04-06T14:09:18;2.50;;;1.15;;
78618;SDS011;67941;52.506;5.470;2023-04-06T14:11:47;4.00;;;1.48;;
78618;SDS011;67941;52.506;5.470;2023-04-06T14:14:15;4.75;;;1.70;;
78618;SDS011;67941;52.506;5.470;2023-04-06T14:16:45;3.40;;;1.60;;
78618;SDS011;67941;52.506;5.470;2023-04-06T14:19:17;3.03;;;1.02;;
78618;SDS011;67941;52.506;5.470;2023-04-06T14:21:46;2.55;;;1.08;;
78618;SDS011;67941;52.506;5.470;2023-04-06T14:24:17;3.17;;;1.23;;
78618;SDS011;67941;52.506;5.470;2023-04-06T14:26:46;3.25;;;1.40;;
78618;SDS011;67941;52.506;5.470;2023-04-06T14:29:15;2.05;;;0.75;;
78618;SDS011;67941;52.506;5.470;2023-04-06T14:31:44;5.85;;;1.20;;
78618;SDS011;67941;52.506;5.470;2023-04-06T14:34:13;3.35;;;1.42;;
78618;SDS011;67941;52.506;5.470;2023-04-06T14:36:46;4.05;;;1.40;;
78618;SDS011;67941;52.506;5.470;2023-04-06T14:39:15;2.22;;;0.93;;
78618;SDS011;67941;52.506;5.470;2023-04-06T14:41:44;3.30;;;1.10;;
78618;SDS011;67941;52.506;5.470;2023-04-06T14:44:13;2.10;;;0.90;;
78618;SDS011;67941;52.506;5.470;2023-04-06T14:46:42;3.00;;;1.10;;
78618;SDS011;67941;52.506;5.470;2023-04-06T14:49:11;4.03;;;1.55;;
78618;SDS011;67941;52.506;5.470;2023-04-06T14:51:42;4.18;;;1.17;;
78618;SDS011;67941;52.506;5.470;2023-04-06T14:54:11;2.15;;;0.98;;
78618;SDS011;67941;52.506;5.470;2023-04-06T14:56:40;2.60;;;0.70;;
78618;SDS011;67941;52.506;5.470;2023-04-06T14:59:09;3.40;;;1.10;;
78618;SDS011;67941;52.506;5.470;2023-04-06T15:01:38;1.98;;;0.88;;
78618;SDS011;67941;52.506;5.470;2023-04-06T15:04:07;2.67;;;0.93;;
78618;SDS011;67941;52.506;5.470;2023-04-06T15:06:35;2.75;;;1.08;;
78618;SDS011;67941;52.506;5.470;2023-04-06T15:09:07;2.92;;;0.95;;
78618;SDS011;67941;52.506;5.470;2023-04-06T15:11:36;3.03;;;0.95;;
78618;SDS011;67941;52.506;5.470;2023-04-06T15:14:05;2.67;;;0.98;;
78618;SDS011;67941;52.506;5.470;2023-04-06T15:16:34;1.65;;;0.75;;
78618;SDS011;67941;52.506;5.470;2023-04-06T15:19:03;3.28;;;1.45;;
78618;SDS011;67941;52.506;5.470;2023-04-06T15:21:32;2.03;;;0.70;;
78618;SDS011;67941;52.506;5.470;2023-04-06T15:24:01;3.53;;;1.23;;
78618;SDS011;67941;52.506;5.470;2023-04-06T15:26:34;2.50;;;0.77;;
78618;SDS011;67941;52.506;5.470;2023-04-06T15:29:03;3.75;;;1.67;;
78618;SDS011;67941;52.506;5.470;2023-04-06T15:31:32;2.83;;;1.10;;
78618;SDS011;67941;52.506;5.470;2023-04-06T15:34:03;2.47;;;1.05;;
78618;SDS011;67941;52.506;5.470;2023-04-06T15:36:33;3.80;;;1.50;;
78618;SDS011;67941;52.506;5.470;2023-04-06T15:39:02;4.53;;;1.60;;
78618;SDS011;67941;52.506;5.470;2023-04-06T15:41:36;3.80;;;1.58;;
78618;SDS011;67941;52.506;5.470;2023-04-06T15:44:05;3.65;;;1.35;;